Time;durP1;ratioP1;P1;durP2;ratioP2;P2;SDS_P1;SDS_P2;PMS_P1;PMS_P2;Temp;Humidity;BMP_temperature;BMP_pressure;BME280_temperature;BME280_humidity;BME280_pressure;Samples;Min_cycle;Max_cycle;Signal;HPM_P1;HPM_P2
2022/02/27 00:00:30;;;;;;;8.07;4.32;;;;;;;;;;5034993;28;20202;-84
2022/02/27 00:02:58;;;;;;;9.35;4.57;;;;;;;;;;5034853;28;20207;-84
2022/02/27 00:05:25;;;;;;;8.90;4.55;;;;;;;;;;5034716;28;20693;-84
2022/02/27 00:07:53;;;;;;;9.40;4.90;;;;;;;;;;5034595;28;20280;-84
2022/02/27 00:10:21;;;;;;;7.85;2.75;;;;;;;;;;5034506;28;20207;-83
2022/02/27 00:12:49;;;;;;;4.30;2.65;;;;;;;;;;5034725;28;20253;-84
2022/02/27 00:15:16;;;;;;;4.88;2.55;;;;;;;;;;5034972;28;20230;-83
2022/02/27 00:17:45;;;;;;;7.43;3.00;;;;;;;;;;5034608;28;20644;-83
2022/02/27 00:20:13;;;;;;;5.32;3.88;;;;;;;;;;5034476;28;20206;-83
2022/02/27 00:22:40;;;;;;;10.38;4.63;;;;;;;;;;5034021;28;20198;-83
2022/02/27 00:25:10;;;;;;;9.50;4.70;;;;;;;;;;5034477;28;20230;-84
2022/02/27 00:27:38;;;;;;;7.88;3.70;;;;;;;;;;5034257;28;20195;-83
2022/02/27 00:30:08;;;;;;;3.83;2.47;;;;;;;;;;5034004;28;20202;-84
2022/02/27 00:32:35;;;;;;;6.47;2.67;;;;;;;;;;5033881;28;20206;-83
2022/02/27 00:35:04;;;;;;;5.72;2.88;;;;;;;;;;5034050;28;20224;-83
2022/02/27 00:37:32;;;;;;;5.10;2.42;;;;;;;;;;5034247;28;20206;-83
2022/02/27 00:39:59;;;;;;;7.40;2.17;;;;;;;;;;5033946;28;20678;-83
2022/02/27 00:42:26;;;;;;;4.95;1.95;;;;;;;;;;5033541;28;20781;-84
2022/02/27 00:44:54;;;;;;;3.15;2.22;;;;;;;;;;5033408;28;20233;-83
2022/02/27 00:47:21;;;;;;;4.72;1.98;;;;;;;;;;5033732;28;20662;-84
2022/02/27 00:49:48;;;;;;;6.03;2.05;;;;;;;;;;5034004;28;20241;-83
2022/02/27 00:52:19;;;;;;;6.03;2.88;;;;;;;;;;5033162;28;20206;-83
2022/02/27 00:54:46;;;;;;;3.70;2.05;;;;;;;;;;5033895;28;20272;-83
2022/02/27 00:57:13;;;;;;;4.47;2.17;;;;;;;;;;5033404;28;20202;-84
2022/02/27 00:59:44;;;;;;;2.92;2.00;;;;;;;;;;5033236;28;20221;-84
2022/02/27 01:02:11;;;;;;;3.33;2.25;;;;;;;;;;5033795;28;20198;-83
2022/02/27 01:04:39;;;;;;;3.08;2.28;;;;;;;;;;5033842;28;20270;-83
2022/02/27 01:07:06;;;;;;;3.50;2.33;;;;;;;;;;5033761;28;20206;-83
2022/02/27 01:09:35;;;;;;;3.83;2.95;;;;;;;;;;5033558;28;20199;-84
2022/02/27 01:12:03;;;;;;;4.10;2.60;;;;;;;;;;5033375;28;20260;-84
2022/02/27 01:14:30;;;;;;;4.50;2.85;;;;;;;;;;5033730;28;20604;-84
2022/02/27 01:17:01;;;;;;;3.58;3.00;;;;;;;;;;5033556;28;20198;-84
2022/02/27 01:19:28;;;;;;;5.78;2.60;;;;;;;;;;5033338;28;20234;-83
2022/02/27 01:21:56;;;;;;;2.60;2.17;;;;;;;;;;5013005;28;20210;-84
2022/02/27 01:24:23;;;;;;;3.95;2.38;;;;;;;;;;5013637;28;20245;-84
2022/02/27 01:26:52;;;;;;;6.38;3.25;;;;;;;;;;5013930;28;20297;-83
2022/02/27 01:29:19;;;;;;;3.90;3.05;;;;;;;;;;5013832;28;20705;-84
2022/02/27 01:31:47;;;;;;;4.75;2.90;;;;;;;;;;5013536;28;20202;-84
2022/02/27 01:34:14;;;;;;;5.63;2.90;;;;;;;;;;5013720;28;20222;-84
2022/02/27 01:36:41;;;;;;;4.85;3.05;;;;;;;;;;5013785;28;20206;-84
2022/02/27 01:39:09;;;;;;;3.65;2.60;;;;;;;;;;5012764;28;20223;-84
2022/02/27 01:41:36;;;;;;;5.07;3.15;;;;;;;;;;5013519;28;20214;-84
2022/02/27 01:44:05;;;;;;;2.70;2.50;;;;;;;;;;5012782;28;20238;-84
2022/02/27 01:46:34;;;;;;;4.78;3.13;;;;;;;;;;5013206;28;20213;-84
2022/02/27 01:49:01;;;;;;;3.90;2.53;;;;;;;;;;5013555;28;20199;-84
2022/02/27 01:51:29;;;;;;;5.85;3.13;;;;;;;;;;5029542;28;20582;-85
2022/02/27 01:53:56;;;;;;;7.40;3.75;;;;;;;;;;5033386;28;20218;-84
2022/02/27 01:56:23;;;;;;;6.75;3.03;;;;;;;;;;5033348;28;20198;-84
2022/02/27 01:58:51;;;;;;;5.55;4.18;;;;;;;;;;5033139;28;20698;-84
2022/02/27 02:01:19;;;;;;;3.80;2.67;;;;;;;;;;5033071;28;20197;-84
2022/02/27 02:03:47;;;;;;;3.20;2.05;;;;;;;;;;5032326;28;20269;-85
2022/02/27 02:06:14;;;;;;;4.97;3.78;;;;;;;;;;5033154;28;20202;-84
2022/02/27 02:08:41;;;;;;;5.28;4.05;;;;;;;;;;5033122;28;20705;-84
2022/02/27 02:11:08;;;;;;;3.55;2.88;;;;;;;;;;5034059;28;20568;-85
2022/02/27 02:13:36;;;;;;;5.57;2.85;;;;;;;;;;5036818;28;20744;-84
2022/02/27 02:16:03;;;;;;;4.85;2.35;;;;;;;;;;5036753;28;20205;-84
2022/02/27 02:18:32;;;;;;;3.58;2.58;;;;;;;;;;5036348;28;20221;-84
2022/02/27 02:21:00;;;;;;;4.75;2.45;;;;;;;;;;5036928;28;20265;-84
2022/02/27 02:23:28;;;;;;;5.28;2.50;;;;;;;;;;5036233;28;20222;-84
2022/02/27 02:25:55;;;;;;;6.13;2.97;;;;;;;;;;5036745;28;20206;-83
2022/02/27 02:28:22;;;;;;;6.18;2.80;;;;;;;;;;5036822;28;20228;-83
2022/02/27 02:30:50;;;;;;;3.65;2.60;;;;;;;;;;5036658;28;20202;-83
2022/02/27 02:33:17;;;;;;;4.90;3.03;;;;;;;;;;5036337;28;20232;-83
2022/02/27 02:35:45;;;;;;;3.75;2.65;;;;;;;;;;5036708;28;20236;-83
2022/02/27 02:38:13;;;;;;;2.65;2.45;;;;;;;;;;5036979;28;20611;-83
2022/02/27 02:40:41;;;;;;;2.95;2.45;;;;;;;;;;5036355;28;20222;-83
2022/02/27 02:43:13;;;;;;;2.25;2.05;;;;;;;;;;5036106;28;20209;-83
2022/02/27 02:45:40;;;;;;;2.28;2.08;;;;;;;;;;5036356;28;20670;-83
2022/02/27 02:48:07;;;;;;;3.97;2.47;;;;;;;;;;5036439;28;20240;-83
2022/02/27 02:50:35;;;;;;;3.35;2.53;;;;;;;;;;5036446;28;20202;-83
2022/02/27 02:53:02;;;;;;;3.38;2.20;;;;;;;;;;5036330;28;20229;-83
2022/02/27 02:55:31;;;;;;;3.45;2.08;;;;;;;;;;5036075;28;20209;-83
2022/02/27 02:57:58;;;;;;;2.40;1.70;;;;;;;;;;5036458;28;20206;-84
2022/02/27 03:00:25;;;;;;;2.35;2.15;;;;;;;;;;5036332;28;20635;-83
2022/02/27 03:02:53;;;;;;;2.17;1.92;;;;;;;;;;5036246;28;20245;-83
2022/02/27 03:05:20;;;;;;;1.60;1.50;;;;;;;;;;5036075;28;20222;-83
2022/02/27 03:07:47;;;;;;;3.65;1.85;;;;;;;;;;5036531;28;20206;-83
2022/02/27 03:10:15;;;;;;;1.73;1.63;;;;;;;;;;5036378;28;20202;-84
2022/02/27 03:12:43;;;;;;;2.45;2.20;;;;;;;;;;5035880;28;20674;-83
2022/02/27 03:15:11;;;;;;;2.90;2.25;;;;;;;;;;5036026;28;20624;-84
2022/02/27 03:17:38;;;;;;;5.82;2.83;;;;;;;;;;5035974;28;20207;-84
2022/02/27 03:20:07;;;;;;;2.67;2.30;;;;;;;;;;5035544;28;20230;-84
2022/02/27 03:22:34;;;;;;;2.42;2.00;;;;;;;;;;5034709;28;20198;-84
2022/02/27 03:25:02;;;;;;;1.98;1.88;;;;;;;;;;5036234;28;20229;-84
2022/02/27 03:27:29;;;;;;;2.45;2.15;;;;;;;;;;5035425;28;20202;-84
2022/02/27 03:29:57;;;;;;;2.75;2.10;;;;;;;;;;5036100;28;20668;-83
2022/02/27 03:32:25;;;;;;;2.25;2.05;;;;;;;;;;5035709;28;20256;-83
2022/02/27 03:34:52;;;;;;;2.03;1.83;;;;;;;;;;5035853;28;20218;-83
2022/02/27 03:37:19;;;;;;;3.33;2.63;;;;;;;;;;5035998;28;20256;-84
2022/02/27 03:39:47;;;;;;;5.30;2.72;;;;;;;;;;5035459;28;20226;-83
2022/02/27 03:42:14;;;;;;;2.65;1.98;;;;;;;;;;5035719;28;20202;-84
2022/02/27 03:44:41;;;;;;;3.33;2.33;;;;;;;;;;5035702;28;20253;-84
2022/02/27 03:47:10;;;;;;;3.05;2.22;;;;;;;;;;5035900;28;20322;-83
2022/02/27 03:49:38;;;;;;;3.03;2.10;;;;;;;;;;5035324;28;20202;-84
2022/02/27 03:52:05;;;;;;;3.08;2.30;;;;;;;;;;5035325;28;20203;-84
2022/02/27 03:54:33;;;;;;;3.10;2.40;;;;;;;;;;5035123;28;20260;-84
2022/02/27 03:57:00;;;;;;;4.00;2.30;;;;;;;;;;5034911;28;20202;-84
2022/02/27 03:59:27;;;;;;;2.50;2.30;;;;;;;;;;5035592;28;20203;-83
2022/02/27 04:01:54;;;;;;;4.43;2.20;;;;;;;;;;5035407;28;20202;-84
2022/02/27 04:04:23;;;;;;;6.82;2.85;;;;;;;;;;5035289;28;20230;-83
2022/02/27 04:06:50;;;;;;;3.67;2.47;;;;;;;;;;5035179;28;20202;-84
2022/02/27 04:09:18;;;;;;;2.97;2.22;;;;;;;;;;5035273;28;20264;-84
2022/02/27 04:11:45;;;;;;;4.47;2.55;;;;;;;;;;5034977;28;20612;-84
2022/02/27 04:14:12;;;;;;;5.03;3.08;;;;;;;;;;5034974;28;20230;-84
2022/02/27 04:16:40;;;;;;;2.35;2.05;;;;;;;;;;5035472;28;20202;-85
2022/02/27 04:19:07;;;;;;;2.75;2.33;;;;;;;;;;5035896;28;20199;-84
2022/02/27 04:21:36;;;;;;;6.75;2.33;;;;;;;;;;5035145;28;20320;-84
2022/02/27 04:24:03;;;;;;;4.35;2.47;;;;;;;;;;5035574;28;20218;-84
2022/02/27 04:26:31;;;;;;;3.15;2.45;;;;;;;;;;5035749;28;20260;-83
2022/02/27 04:28:58;;;;;;;2.67;2.47;;;;;;;;;;5035737;28;20210;-83
2022/02/27 04:31:25;;;;;;;2.88;2.55;;;;;;;;;;5035128;28;20198;-83
2022/02/27 04:33:53;;;;;;;6.38;3.15;;;;;;;;;;5033752;28;20256;-83
2022/02/27 04:36:20;;;;;;;2.33;1.73;;;;;;;;;;5034357;28;20217;-83
2022/02/27 04:38:52;;;;;;;4.30;2.33;;;;;;;;;;5034346;28;20206;-83
2022/02/27 04:41:19;;;;;;;10.52;3.33;;;;;;;;;;5034745;28;20226;-83
2022/02/27 04:43:47;;;;;;;3.33;2.70;;;;;;;;;;5033753;28;20233;-83
2022/02/27 04:46:14;;;;;;;5.40;3.03;;;;;;;;;;5034811;28;20248;-83
2022/02/27 04:48:42;;;;;;;3.50;2.30;;;;;;;;;;5034378;28;20290;-83
2022/02/27 04:51:10;;;;;;;4.15;2.70;;;;;;;;;;5035769;28;20209;-83
2022/02/27 04:53:37;;;;;;;5.15;2.38;;;;;;;;;;5034018;28;20621;-83
2022/02/27 04:56:08;;;;;;;2.78;2.28;;;;;;;;;;5034604;28;20206;-84
2022/02/27 04:58:35;;;;;;;3.28;2.20;;;;;;;;;;5034884;28;20209;-83
2022/02/27 05:01:03;;;;;;;3.90;2.78;;;;;;;;;;5034494;28;20570;-83
2022/02/27 05:03:30;;;;;;;3.05;2.80;;;;;;;;;;5033464;28;20272;-83
2022/02/27 05:05:57;;;;;;;3.60;2.90;;;;;;;;;;5033434;28;20671;-83
2022/02/27 05:08:24;;;;;;;2.03;1.88;;;;;;;;;;5034146;28;20198;-84
2022/02/27 05:10:52;;;;;;;4.07;2.72;;;;;;;;;;5033754;28;20202;-84
2022/02/27 05:13:20;;;;;;;2.53;2.33;;;;;;;;;;5033549;28;20219;-84
2022/02/27 05:15:48;;;;;;;10.65;2.78;;;;;;;;;;5033676;28;20659;-83
2022/02/27 05:18:15;;;;;;;5.60;2.53;;;;;;;;;;5033748;28;20217;-84
2022/02/27 05:20:42;;;;;;;3.42;2.92;;;;;;;;;;5034022;28;20229;-84
2022/02/27 05:23:09;;;;;;;2.72;2.50;;;;;;;;;;5033980;28;20210;-83
2022/02/27 05:25:37;;;;;;;4.82;3.38;;;;;;;;;;5033694;28;20198;-83
2022/02/27 05:28:04;;;;;;;6.85;3.45;;;;;;;;;;5033752;28;20207;-84
2022/02/27 05:30:33;;;;;;;3.00;2.20;;;;;;;;;;5033728;28;20203;-84
2022/02/27 05:33:01;;;;;;;2.95;2.25;;;;;;;;;;5034105;28;20206;-84
2022/02/27 05:35:28;;;;;;;2.50;1.92;;;;;;;;;;5034259;28;20198;-84
2022/02/27 05:37:55;;;;;;;3.47;2.58;;;;;;;;;;5034106;28;20675;-84
2022/02/27 05:40:23;;;;;;;2.80;2.20;;;;;;;;;;5034865;28;20260;-83
2022/02/27 05:42:50;;;;;;;7.53;3.50;;;;;;;;;;5034461;28;20202;-84
2022/02/27 05:45:17;;;;;;;6.50;3.08;;;;;;;;;;5034468;28;20222;-84
2022/02/27 05:47:46;;;;;;;4.25;2.60;;;;;;;;;;5033540;28;20198;-86
2022/02/27 05:50:13;;;;;;;5.25;3.08;;;;;;;;;;5033289;28;20627;-86
2022/02/27 05:52:41;;;;;;;2.47;1.85;;;;;;;;;;5032071;28;20198;-86
2022/02/27 05:55:09;;;;;;;3.40;3.10;;;;;;;;;;5032160;28;20710;-85
2022/02/27 05:57:36;;;;;;;4.15;2.50;;;;;;;;;;5031665;28;20268;-86
2022/02/27 06:00:07;;;;;;;7.32;4.03;;;;;;;;;;5031792;28;20202;-85
2022/02/27 06:02:34;;;;;;;3.75;2.58;;;;;;;;;;5032154;28;20233;-86
2022/02/27 06:05:03;;;;;;;3.70;3.38;;;;;;;;;;5032538;28;20733;-86
2022/02/27 06:07:30;;;;;;;2.92;2.20;;;;;;;;;;5032305;28;20210;-85
2022/02/27 06:09:57;;;;;;;3.17;2.67;;;;;;;;;;5032013;28;20572;-86
2022/02/27 06:12:25;;;;;;;2.20;1.98;;;;;;;;;;5032016;28;20577;-86
2022/02/27 06:14:52;;;;;;;6.10;3.13;;;;;;;;;;5032551;28;20229;-85
2022/02/27 06:17:19;;;;;;;2.38;2.15;;;;;;;;;;5032490;28;20205;-86
2022/02/27 06:19:46;;;;;;;3.13;2.28;;;;;;;;;;5032338;28;20214;-86
2022/02/27 06:22:15;;;;;;;6.40;2.92;;;;;;;;;;5032896;28;20233;-85
2022/02/27 06:24:43;;;;;;;4.28;2.47;;;;;;;;;;5032140;28;20229;-86
2022/02/27 06:27:10;;;;;;;3.97;2.97;;;;;;;;;;5032523;28;20202;-86
2022/02/27 06:29:38;;;;;;;4.22;2.88;;;;;;;;;;5032768;28;20202;-86
2022/02/27 06:32:06;;;;;;;2.55;2.35;;;;;;;;;;5032342;28;20259;-86
2022/02/27 06:34:33;;;;;;;5.38;3.25;;;;;;;;;;5032066;28;20236;-85
2022/02/27 06:37:01;;;;;;;4.82;3.08;;;;;;;;;;5032302;28;20209;-86
2022/02/27 06:39:29;;;;;;;6.00;2.75;;;;;;;;;;5032437;28;20587;-85
2022/02/27 06:41:58;;;;;;;3.15;2.63;;;;;;;;;;5031809;28;20218;-86
2022/02/27 06:44:25;;;;;;;2.30;1.77;;;;;;;;;;5032259;28;20226;-86
2022/02/27 06:46:52;;;;;;;4.25;2.25;;;;;;;;;;5031949;28;20206;-86
2022/02/27 06:49:19;;;;;;;3.03;2.13;;;;;;;;;;5031962;28;20210;-86
2022/02/27 06:51:47;;;;;;;2.53;2.10;;;;;;;;;;5031721;28;20213;-86
2022/02/27 06:54:14;;;;;;;2.35;2.15;;;;;;;;;;5031741;28;20226;-85
2022/02/27 06:56:43;;;;;;;1.70;1.60;;;;;;;;;;5032222;28;20206;-86
2022/02/27 06:59:10;;;;;;;2.15;1.95;;;;;;;;;;5035707;28;20732;-85
2022/02/27 07:01:38;;;;;;;3.00;2.17;;;;;;;;;;5035462;28;20237;-86
2022/02/27 07:04:06;;;;;;;2.00;1.80;;;;;;;;;;5035778;28;20284;-86
2022/02/27 07:06:33;;;;;;;2.72;1.70;;;;;;;;;;5036826;28;20198;-85
2022/02/27 07:09:01;;;;;;;3.08;1.95;;;;;;;;;;5035693;28;20209;-86
2022/02/27 07:11:28;;;;;;;3.53;2.10;;;;;;;;;;5036395;28;20202;-85
2022/02/27 07:13:58;;;;;;;3.35;2.22;;;;;;;;;;5036010;28;20217;-85
2022/02/27 07:16:25;;;;;;;3.67;2.72;;;;;;;;;;5036115;28;20217;-85
2022/02/27 07:18:55;;;;;;;4.15;3.72;;;;;;;;;;5035478;28;20225;-85
2022/02/27 07:21:23;;;;;;;5.65;3.08;;;;;;;;;;5035344;28;20305;-86
2022/02/27 07:23:50;;;;;;;4.65;4.10;;;;;;;;;;5035599;28;20526;-85
2022/02/27 07:26:17;;;;;;;5.25;2.53;;;;;;;;;;5035878;28;20206;-86
2022/02/27 07:28:45;;;;;;;3.70;3.40;;;;;;;;;;5035258;28;20207;-86
2022/02/27 07:31:13;;;;;;;2.30;2.13;;;;;;;;;;5035179;28;20891;-86
2022/02/27 07:33:46;;;;;;;3.47;2.42;;;;;;;;;;5035471;28;20237;-85
2022/02/27 07:36:25;;;;;;;3.45;3.00;;;;;;;;;;5035083;28;20194;-86
2022/02/27 07:39:06;;;;;;;4.80;2.80;;;;;;;;;;5032367;28;20764;-86
2022/02/27 07:41:34;;;;;;;5.57;2.90;;;;;;;;;;5036153;28;20210;-86
2022/02/27 07:44:03;;;;;;;3.42;2.55;;;;;;;;;;5035356;28;20218;-86
2022/02/27 07:46:35;;;;;;;4.78;2.80;;;;;;;;;;5035593;28;20264;-86
2022/02/27 07:49:18;;;;;;;6.50;3.83;;;;;;;;;;5035804;28;20218;-86
2022/02/27 07:54:48;;;;;;;3.40;3.10;;;;;;;;;;5031941;28;20226;-85
2022/02/27 07:57:27;;;;;;;7.60;3.20;;;;;;;;;;5035666;28;20684;-84
2022/02/27 08:00:01;;;;;;;4.78;2.63;;;;;;;;;;5035631;28;20213;-85
2022/02/27 08:03:18;;;;;;;5.30;2.88;;;;;;;;;;5035891;28;20265;-85
2022/02/27 08:05:54;;;;;;;4.13;2.42;;;;;;;;;;5029825;28;20612;-86
2022/02/27 08:08:30;;;;;;;4.55;3.13;;;;;;;;;;5035566;28;20206;-85
2022/02/27 08:11:06;;;;;;;3.08;2.78;;;;;;;;;;5029835;28;20301;-84
2022/02/27 08:13:44;;;;;;;3.05;2.75;;;;;;;;;;5034680;28;20597;-85
2022/02/27 08:16:24;;;;;;;3.38;2.70;;;;;;;;;;5035038;28;20213;-86
2022/02/27 08:19:10;;;;;;;5.38;3.35;;;;;;;;;;5034169;28;20226;-86
2022/02/27 08:22:04;;;;;;;3.42;3.13;;;;;;;;;;5031343;28;20206;-86
2022/02/27 08:24:51;;;;;;;5.15;2.50;;;;;;;;;;5033740;28;20234;-86
2022/02/27 08:27:38;;;;;;;5.80;3.42;;;;;;;;;;5027794;28;20662;-86
2022/02/27 08:30:16;;;;;;;3.08;2.78;;;;;;;;;;5033731;28;20209;-85
2022/02/27 08:32:53;;;;;;;3.00;2.50;;;;;;;;;;5033951;28;20210;-84
2022/02/27 08:35:46;;;;;;;5.38;2.97;;;;;;;;;;5034306;28;20606;-84
2022/02/27 08:38:26;;;;;;;4.82;2.85;;;;;;;;;;5033736;28;20211;-85
2022/02/27 08:41:06;;;;;;;7.35;3.13;;;;;;;;;;5033989;28;20213;-85
2022/02/27 08:43:47;;;;;;;2.90;2.60;;;;;;;;;;5033797;28;20265;-85
2022/02/27 08:46:24;;;;;;;3.55;2.80;;;;;;;;;;5033914;28;20206;-84
2022/02/27 08:49:09;;;;;;;7.28;3.22;;;;;;;;;;5033269;28;20198;-85
2022/02/27 08:54:52;;;;;;;5.22;2.75;;;;;;;;;;5033020;28;20756;-85
2022/02/27 08:57:24;;;;;;;4.30;3.30;;;;;;;;;;5033230;28;20283;-86
2022/02/27 08:59:52;;;;;;;7.43;4.03;;;;;;;;;;5033604;28;20221;-87
2022/02/27 09:02:19;;;;;;;4.22;3.80;;;;;;;;;;5033100;28;20222;-85
2022/02/27 09:04:46;;;;;;;6.00;3.15;;;;;;;;;;5032817;28;20231;-87
2022/02/27 09:07:32;;;;;;;3.15;2.85;;;;;;;;;;5032785;28;20210;-83
2022/02/27 09:10:22;;;;;;;5.88;4.05;;;;;;;;;;5027642;28;20228;-84
2022/02/27 09:13:04;;;;;;;10.50;3.42;;;;;;;;;;5032506;28;20205;-87
2022/02/27 09:15:48;;;;;;;4.05;2.67;;;;;;;;;;5032694;28;20210;-87
2022/02/27 09:18:37;;;;;;;6.65;3.42;;;;;;;;;;5026588;28;20210;-87
2022/02/27 09:21:06;;;;;;;4.25;3.15;;;;;;;;;;5032390;28;20255;-85
2022/02/27 09:23:35;;;;;;;4.85;3.50;;;;;;;;;;5032608;28;20227;-88
2022/02/27 09:26:03;;;;;;;5.82;3.33;;;;;;;;;;5032695;28;20202;-85
2022/02/27 09:28:30;;;;;;;6.90;4.25;;;;;;;;;;5032623;28;20218;-87
2022/02/27 09:31:05;;;;;;;5.53;3.58;;;;;;;;;;5032461;28;20209;-85
2022/02/27 09:33:59;;;;;;;3.88;2.78;;;;;;;;;;5032712;28;20248;-85
2022/02/27 09:37:16;;;;;;;2.88;2.10;;;;;;;;;;5032237;28;20681;-86
2022/02/27 09:39:44;;;;;;;4.63;3.63;;;;;;;;;;5027614;28;20225;-83
2022/02/27 09:42:39;;;;;;;5.65;3.75;;;;;;;;;;5032089;28;20213;-85
2022/02/27 09:45:24;;;;;;;10.50;4.05;;;;;;;;;;5032127;28;20254;-84
2022/02/27 09:48:13;;;;;;;6.45;2.80;;;;;;;;;;5031901;28;20206;-84
2022/02/27 09:50:52;;;;;;;3.38;2.70;;;;;;;;;;5032161;28;20677;-84
2022/02/27 09:53:44;;;;;;;3.05;2.58;;;;;;;;;;5032639;28;20340;-84
2022/02/27 09:56:52;;;;;;;;;;;;;;;;;;;;;
2022/02/27 09:59:45;;;;;;;4.15;2.78;;;;;;;;;;5033181;28;20202;-83
2022/02/27 10:02:33;;;;;;;6.05;3.25;;;;;;;;;;5030241;28;20216;-84
2022/02/27 10:05:13;;;;;;;3.58;2.88;;;;;;;;;;5032644;28;20241;-84
2022/02/27 10:08:09;;;;;;;5.47;4.18;;;;;;;;;;5032838;28;20662;-85
2022/02/27 10:11:05;;;;;;;5.63;3.40;;;;;;;;;;5033178;28;20725;-83
2022/02/27 10:13:57;;;;;;;4.90;2.83;;;;;;;;;;5030778;28;20226;-82
2022/02/27 10:17:04;;;;;;;;;;;;;;;;;;;;;
2022/02/27 10:19:43;;;;;;;4.55;3.33;;;;;;;;;;5026877;28;20217;-83
2022/02/27 10:22:10;;;;;;;3.90;2.45;;;;;;;;;;5026991;28;20202;-83
2022/02/27 10:24:40;;;;;;;3.65;2.67;;;;;;;;;;5034584;28;20227;-83
2022/02/27 10:27:12;;;;;;;4.32;3.20;;;;;;;;;;5028027;28;20214;-83
2022/02/27 10:29:45;;;;;;;3.92;2.60;;;;;;;;;;5033863;28;20244;-83
2022/02/27 10:35:21;;;;;;;2.92;2.13;;;;;;;;;;5034696;28;20714;-83
2022/02/27 10:37:59;;;;;;;3.45;2.00;;;;;;;;;;5036046;28;20247;-84
2022/02/27 10:43:39;;;;;;;4.22;3.05;;;;;;;;;;5024967;28;20237;-84
2022/02/27 10:46:33;;;;;;;2.38;2.17;;;;;;;;;;5035717;28;20244;-83
2022/02/27 10:49:10;;;;;;;3.80;2.80;;;;;;;;;;5035470;28;20210;-84
2022/02/27 10:51:40;;;;;;;2.90;1.75;;;;;;;;;;5035639;28;20265;-83
2022/02/27 10:54:07;;;;;;;2.45;2.00;;;;;;;;;;5035202;28;20222;-83
2022/02/27 10:57:17;;;;;;;2.70;2.25;;;;;;;;;;5035264;28;20213;-85
2022/02/27 10:59:45;;;;;;;4.25;1.92;;;;;;;;;;5034883;28;20293;-84
2022/02/27 11:02:14;;;;;;;4.32;2.83;;;;;;;;;;5034744;28;20202;-82
2022/02/27 11:04:41;;;;;;;2.55;1.90;;;;;;;;;;5034415;28;20258;-83
2022/02/27 11:07:08;;;;;;;2.22;2.05;;;;;;;;;;5035353;28;20217;-83
2022/02/27 11:09:36;;;;;;;2.60;2.00;;;;;;;;;;5035416;28;20210;-83
2022/02/27 11:12:06;;;;;;;2.95;1.63;;;;;;;;;;5035471;28;20206;-85
2022/02/27 11:14:54;;;;;;;2.40;1.60;;;;;;;;;;5035219;28;20225;-85
2022/02/27 11:17:29;;;;;;;4.05;1.50;;;;;;;;;;5036296;28;20268;-85
2022/02/27 11:19:57;;;;;;;2.53;1.73;;;;;;;;;;5035226;28;20237;-85
2022/02/27 11:22:28;;;;;;;2.42;1.95;;;;;;;;;;5035387;28;20333;-86
2022/02/27 11:25:11;;;;;;;3.00;2.08;;;;;;;;;;5035438;28;20457;-86
2022/02/27 11:27:50;;;;;;;2.33;1.60;;;;;;;;;;5035108;28;20282;-85
2022/02/27 11:30:30;;;;;;;2.60;1.73;;;;;;;;;;5028849;28;20221;-84
2022/02/27 11:33:05;;;;;;;2.20;1.45;;;;;;;;;;5035268;28;20640;-84
2022/02/27 11:35:42;;;;;;;3.92;1.55;;;;;;;;;;5035597;28;20705;-86
2022/02/27 11:38:12;;;;;;;2.38;1.77;;;;;;;;;;5034814;28;20205;-87
2022/02/27 11:40:56;;;;;;;1.75;1.38;;;;;;;;;;5034570;28;20230;-86
2022/02/27 11:43:40;;;;;;;1.50;1.20;;;;;;;;;;5034436;28;20687;-85
2022/02/27 11:46:21;;;;;;;1.85;1.42;;;;;;;;;;5035504;28;20233;-87
2022/02/27 11:49:08;;;;;;;3.28;2.08;;;;;;;;;;5035804;28;20293;-86
2022/02/27 11:51:46;;;;;;;2.13;1.80;;;;;;;;;;5035114;28;20283;-85
2022/02/27 11:54:19;;;;;;;1.50;1.40;;;;;;;;;;5035438;28;20226;-87
2022/02/27 11:57:09;;;;;;;1.50;1.38;;;;;;;;;;5034751;28;20210;-85
2022/02/27 12:00:02;;;;;;;2.05;1.42;;;;;;;;;;5024970;28;20210;-88
2022/02/27 12:02:38;;;;;;;2.33;1.60;;;;;;;;;;5029580;28;20213;-85
2022/02/27 12:05:09;;;;;;;3.53;1.88;;;;;;;;;;5034236;28;20226;-85
2022/02/27 12:08:09;;;;;;;2.33;1.30;;;;;;;;;;5034359;28;20210;-85
2022/02/27 12:10:44;;;;;;;1.70;1.50;;;;;;;;;;5028904;28;20210;-85
2022/02/27 12:13:27;;;;;;;2.88;1.88;;;;;;;;;;5035104;28;20263;-86
2022/02/27 12:16:11;;;;;;;4.40;1.73;;;;;;;;;;5034293;28;20728;-84
2022/02/27 12:18:54;;;;;;;2.55;1.75;;;;;;;;;;5034345;28;20288;-84
2022/02/27 12:21:36;;;;;;;2.20;2.00;;;;;;;;;;5033857;28;20206;-84
2022/02/27 12:24:12;;;;;;;3.15;1.90;;;;;;;;;;5033450;28;20226;-84
2022/02/27 12:26:51;;;;;;;3.47;2.15;;;;;;;;;;5034848;28;20558;-85
2022/02/27 12:29:38;;;;;;;2.22;1.90;;;;;;;;;;5036473;28;20676;-83
2022/02/27 12:32:18;;;;;;;3.70;2.20;;;;;;;;;;5034452;28;20226;-83
2022/02/27 12:34:50;;;;;;;3.95;1.95;;;;;;;;;;5033991;28;20222;-87
2022/02/27 12:37:35;;;;;;;3.47;2.55;;;;;;;;;;5034683;28;20271;-83
2022/02/27 12:40:08;;;;;;;3.70;2.08;;;;;;;;;;5033622;28;20290;-85
2022/02/27 12:42:41;;;;;;;3.30;1.80;;;;;;;;;;5027034;28;20210;-86
2022/02/27 12:45:37;;;;;;;3.03;1.90;;;;;;;;;;5033429;28;20673;-85
2022/02/27 12:48:16;;;;;;;3.95;2.30;;;;;;;;;;5034658;28;20206;-85
2022/02/27 12:50:52;;;;;;;2.08;1.80;;;;;;;;;;5035311;28;20206;-85
2022/02/27 12:53:29;;;;;;;2.22;1.95;;;;;;;;;;5029783;28;20230;-85
2022/02/27 12:56:04;;;;;;;1.05;1.00;;;;;;;;;;5027514;28;20209;-85
2022/02/27 12:58:41;;;;;;;3.92;1.90;;;;;;;;;;5032756;28;20194;-88
2022/02/27 13:01:09;;;;;;;2.42;2.03;;;;;;;;;;5033771;28;20205;-86
2022/02/27 13:03:36;;;;;;;2.60;2.25;;;;;;;;;;5033261;28;20226;-85
2022/02/27 13:06:04;;;;;;;2.58;2.35;;;;;;;;;;5035113;28;20222;-84
2022/02/27 13:08:33;;;;;;;3.35;2.45;;;;;;;;;;5033994;28;20207;-85
2022/02/27 13:11:00;;;;;;;6.20;1.80;;;;;;;;;;5035144;28;20203;-83
2022/02/27 13:13:27;;;;;;;2.03;1.77;;;;;;;;;;5036242;28;20222;-84
2022/02/27 13:15:57;;;;;;;2.65;1.50;;;;;;;;;;5037341;28;20214;-83
2022/02/27 13:18:25;;;;;;;3.45;2.65;;;;;;;;;;5036859;28;20233;-84
2022/02/27 13:21:01;;;;;;;5.28;2.42;;;;;;;;;;5037814;28;20209;-84
2022/02/27 13:23:29;;;;;;;2.80;2.42;;;;;;;;;;5036668;28;20237;-84
2022/02/27 13:26:03;;;;;;;1.88;1.77;;;;;;;;;;5038483;28;20276;-84
2022/02/27 13:28:30;;;;;;;2.50;2.30;;;;;;;;;;5039570;28;20229;-84
2022/02/27 13:30:57;;;;;;;1.55;1.45;;;;;;;;;;5031497;28;20206;-83
2022/02/27 13:33:25;;;;;;;2.00;1.60;;;;;;;;;;5032398;28;20226;-84
2022/02/27 13:35:52;;;;;;;2.22;2.13;;;;;;;;;;5030289;28;20199;-84
2022/02/27 13:38:25;;;;;;;1.98;1.80;;;;;;;;;;5030397;28;20210;-85
2022/02/27 13:40:55;;;;;;;2.60;1.50;;;;;;;;;;5038150;28;20198;-82
2022/02/27 13:43:25;;;;;;;2.25;2.05;;;;;;;;;;5036685;28;20237;-85
2022/02/27 13:45:55;;;;;;;3.15;1.83;;;;;;;;;;5036288;28;20264;-82
2022/02/27 13:48:27;;;;;;;2.17;1.98;;;;;;;;;;5038375;28;20620;-83
2022/02/27 13:50:55;;;;;;;1.88;1.77;;;;;;;;;;5037491;28;20670;-84
2022/02/27 13:53:25;;;;;;;2.50;1.70;;;;;;;;;;5036504;28;20234;-83
2022/02/27 13:55:55;;;;;;;3.80;2.42;;;;;;;;;;5036379;28;20275;-84
2022/02/27 13:58:27;;;;;;;2.35;1.80;;;;;;;;;;5034946;28;20206;-84
2022/02/27 14:00:57;;;;;;;3.47;2.38;;;;;;;;;;5036957;28;20236;-84
2022/02/27 14:03:33;;;;;;;4.60;2.58;;;;;;;;;;5036304;28;20245;-84
2022/02/27 14:06:03;;;;;;;3.47;2.15;;;;;;;;;;5040410;28;20512;-84
2022/02/27 14:08:32;;;;;;;2.70;2.35;;;;;;;;;;5047434;28;20685;-84
2022/02/27 14:11:08;;;;;;;2.88;2.05;;;;;;;;;;5047358;28;20206;-84
2022/02/27 14:13:42;;;;;;;2.42;2.20;;;;;;;;;;5043652;28;20232;-84
2022/02/27 14:16:09;;;;;;;2.50;2.30;;;;;;;;;;5043487;28;20290;-84
2022/02/27 14:18:38;;;;;;;3.20;2.35;;;;;;;;;;5044830;28;20228;-83
2022/02/27 14:21:23;;;;;;;4.05;2.42;;;;;;;;;;5044854;28;20209;-83
2022/02/27 14:23:58;;;;;;;3.13;2.08;;;;;;;;;;5041865;28;20225;-83
2022/02/27 14:26:27;;;;;;;6.18;2.88;;;;;;;;;;5043179;28;20225;-84
2022/02/27 14:28:58;;;;;;;3.10;2.03;;;;;;;;;;5042085;28;20260;-83
2022/02/27 14:31:33;;;;;;;3.00;2.70;;;;;;;;;;5042208;28;20577;-85
2022/02/27 14:34:03;;;;;;;2.40;2.20;;;;;;;;;;5040513;28;20233;-85
2022/02/27 14:36:31;;;;;;;2.70;2.30;;;;;;;;;;5041052;28;20214;-85
2022/02/27 14:39:02;;;;;;;2.75;2.47;;;;;;;;;;5040849;28;20204;-85
2022/02/27 14:41:30;;;;;;;4.72;2.85;;;;;;;;;;5041408;28;20210;-85
2022/02/27 14:43:59;;;;;;;3.92;2.33;;;;;;;;;;5041148;28;20222;-84
2022/02/27 14:46:38;;;;;;;2.78;2.50;;;;;;;;;;5039836;28;20233;-85
2022/02/27 14:49:08;;;;;;;3.08;2.65;;;;;;;;;;5040975;28;20205;-84
2022/02/27 14:51:40;;;;;;;4.85;2.92;;;;;;;;;;5039801;28;20643;-87
2022/02/27 14:54:11;;;;;;;3.95;3.15;;;;;;;;;;5040287;28;20320;-85
2022/02/27 14:56:38;;;;;;;2.97;2.78;;;;;;;;;;5040020;28;20217;-84
2022/02/27 14:59:07;;;;;;;4.20;3.03;;;;;;;;;;5040584;28;20224;-85
2022/02/27 15:01:34;;;;;;;3.83;3.00;;;;;;;;;;5040917;28;20198;-85
2022/02/27 15:04:02;;;;;;;3.80;3.17;;;;;;;;;;5039993;28;20218;-84
2022/02/27 15:06:34;;;;;;;6.65;3.35;;;;;;;;;;5040240;28;20312;-84
2022/02/27 15:09:02;;;;;;;5.50;3.88;;;;;;;;;;5040511;28;20210;-83
2022/02/27 15:11:29;;;;;;;3.55;2.75;;;;;;;;;;5040068;28;20264;-84
2022/02/27 15:13:56;;;;;;;3.25;2.95;;;;;;;;;;5040722;28;20226;-84
2022/02/27 15:16:25;;;;;;;4.38;3.35;;;;;;;;;;5041652;28;20225;-84
2022/02/27 15:18:54;;;;;;;3.58;2.83;;;;;;;;;;5037528;28;20217;-84
2022/02/27 15:21:24;;;;;;;4.38;3.25;;;;;;;;;;5037348;28;20206;-86
2022/02/27 15:23:54;;;;;;;5.28;3.80;;;;;;;;;;5036902;28;20609;-84
2022/02/27 15:26:22;;;;;;;6.05;3.22;;;;;;;;;;5036454;28;20234;-83